Time;durP1;ratioP1;P1;durP2;ratioP2;P2;SDS_P1;SDS_P2;PMS_P1;PMS_P2;Temp;Humidity;BMP_temperature;BMP_pressure;BME280_temperature;BME280_humidity;BME280_pressure;Samples;Min_cycle;Max_cycle;Signal;HPM_P1;HPM_P2
2023/12/13 00:01:52;;;;;;;;;82.33;61.67;;;;;5.76;100.00;98678.22;6312589;20;3636695;-43
2023/12/13 00:04:24;;;;;;;;;87.67;66.33;;;;;5.71;100.00;98665.19;6313494;20;3656537;-43
2023/12/13 00:06:53;;;;;;;;;77.67;63.00;;;;;5.62;100.00;98667.53;6279860;20;3619104;-43
2023/12/13 00:09:23;;;;;;;;;82.67;65.33;;;;;5.76;100.00;98672.88;6314541;20;3649290;-42
2023/12/13 00:11:53;;;;;;;;;81.33;61.33;;;;;5.46;100.00;98665.72;6278903;20;3631592;-43
2023/12/13 00:14:22;;;;;;;;;76.67;61.67;;;;;5.80;100.00;98665.59;6312566;20;2863827;-43
2023/12/13 00:16:52;;;;;;;;;74.33;60.33;;;;;5.54;100.00;98656.47;6312072;20;3620431;-42
2023/12/13 00:19:23;;;;;;;;;79.33;60.67;;;;;5.85;100.00;98661.72;6313419;20;3620079;-42
2023/12/13 00:21:52;;;;;;;;;81.00;60.67;;;;;5.72;100.00;98660.72;6314659;20;3648183;-43
2023/12/13 00:24:22;;;;;;;;;76.33;60.33;;;;;5.63;100.00;98650.59;6314595;20;3631615;-42
2023/12/13 00:26:52;;;;;;;;;70.33;55.33;;;;;5.53;100.00;98644.06;6314242;20;3623181;-42
2023/12/13 00:29:22;;;;;;;;;63.67;52.67;;;;;5.64;100.00;98642.53;6312629;20;2868062;-44
2023/12/13 00:31:51;;;;;;;;;66.33;52.00;;;;;5.64;100.00;98631.88;6311793;20;3623166;-44
2023/12/13 00:34:21;;;;;;;;;68.00;53.33;;;;;5.50;100.00;98640.66;6313791;20;3625391;-43
2023/12/13 00:36:51;;;;;;;;;66.00;55.00;;;;;5.19;100.00;98630.91;6313395;20;2874434;-42
2023/12/13 00:39:20;;;;;;;;;74.00;55.00;;;;;5.61;100.00;98642.72;6312047;20;2877506;-43
2023/12/13 00:41:50;;;;;;;;;74.67;56.00;;;;;5.63;100.00;98634.59;6312154;20;3645160;-42
2023/12/13 00:44:20;;;;;;;;;67.00;53.00;;;;;5.22;100.00;98630.72;6312087;20;2879586;-44
2023/12/13 00:46:49;;;;;;;;;75.00;57.33;;;;;4.98;100.00;98632.97;6314184;20;3632566;-42
2023/12/13 00:49:20;;;;;;;;;63.33;51.00;;;;;4.96;100.00;98626.03;6312934;20;2870497;-43
2023/12/13 00:51:50;;;;;;;;;69.33;54.00;;;;;5.19;100.00;98608.78;6311662;20;2881628;-43
2023/12/13 00:54:19;;;;;;;;;66.33;52.00;;;;;5.00;100.00;98614.25;6312644;20;2888019;-42
2023/12/13 00:56:49;;;;;;;;;66.33;52.00;;;;;4.94;100.00;98604.81;6312792;20;2877454;-43
2023/12/13 00:59:19;;;;;;;;;66.33;52.33;;;;;4.96;100.00;98607.41;6311944;20;3623567;-45
2023/12/13 01:01:49;;;;;;;;;71.00;52.67;;;;;4.97;100.00;98603.78;6311411;20;3666009;-44
2023/12/13 01:04:18;;;;;;;;;67.00;54.00;;;;;5.00;100.00;98601.84;6312889;20;2862974;-43
2023/12/13 01:06:48;;;;;;;;;74.33;56.00;;;;;4.96;100.00;98597.63;6280499;20;3624314;-43
2023/12/13 01:09:17;;;;;;;;;69.00;53.33;;;;;4.85;100.00;98578.75;6310489;20;2882674;-43
2023/12/13 01:11:45;;;;;;;;;70.00;52.00;;;;;4.88;100.00;98586.56;6308032;20;2500330;-44
2023/12/13 01:14:15;;;;;;;;;73.00;53.33;;;;;5.01;100.00;98584.91;6280547;20;3639548;-44
2023/12/13 01:16:45;;;;;;;;;69.33;52.67;;;;;5.15;100.00;98583.28;6308653;20;2877471;-43
2023/12/13 01:19:15;;;;;;;;;67.67;51.00;;;;;5.05;100.00;98585.59;6311411;20;2881671;-42
2023/12/13 01:21:45;;;;;;;;;68.67;50.33;;;;;5.18;100.00;98575.09;6314009;20;3640909;-43
2023/12/13 01:24:14;;;;;;;;;67.00;53.00;;;;;5.17;100.00;98566.28;6310625;20;2860713;-43
2023/12/13 01:26:44;;;;;;;;;68.00;53.00;;;;;5.25;100.00;98557.84;6312194;20;2874444;-43
2023/12/13 01:29:14;;;;;;;;;64.33;52.33;;;;;5.22;100.00;98558.03;6312163;20;2871183;-43
2023/12/13 01:31:43;;;;;;;;;60.67;47.33;;;;;5.16;100.00;98551.28;6311516;20;2871256;-43
2023/12/13 01:34:14;;;;;;;;;62.33;51.00;;;;;5.21;100.00;98549.19;6311714;20;2871225;-44
2023/12/13 01:36:44;;;;;;;;;68.67;51.00;;;;;5.02;100.00;98540.53;6311235;20;3644055;-42
2023/12/13 01:39:17;;;;;;;;;70.00;50.00;;;;;5.05;100.00;98543.91;6311668;20;3625301;-43
2023/12/13 01:41:47;;;;;;;;;61.00;48.33;;;;;5.27;100.00;98532.03;6312863;20;2877409;-43
2023/12/13 01:44:17;;;;;;;;;59.50;48.00;;;;;4.96;100.00;98528.47;6312293;20;2852428;-43
2023/12/13 01:46:47;;;;;;;;;64.00;51.33;;;;;4.93;100.00;98523.31;6279607;20;2877430;-43
2023/12/13 01:49:17;;;;;;;;;65.67;51.67;;;;;5.30;100.00;98521.19;6311574;20;2879619;-43
2023/12/13 01:51:47;;;;;;;;;68.33;52.00;;;;;5.14;100.00;98518.56;6311365;20;3630551;-43
2023/12/13 01:54:18;;;;;;;;;68.67;52.00;;;;;5.30;100.00;98512.34;6308492;20;2893132;-43
2023/12/13 01:56:51;;;;;;;;;63.00;50.33;;;;;5.01;100.00;98501.59;6307870;20;2862818;-44
2023/12/13 01:59:21;;;;;;;;;64.67;51.00;;;;;5.21;100.00;98497.75;6308834;20;2889980;-43
2023/12/13 02:01:52;;;;;;;;;69.00;54.00;;;;;5.25;100.00;98486.84;6307197;20;2892095;-43
2023/12/13 02:04:25;;;;;;;;;65.67;54.00;;;;;5.15;100.00;98476.84;6311620;20;3620048;-43
2023/12/13 02:06:55;;;;;;;;;68.33;52.33;;;;;5.06;100.00;98473.78;6306925;20;2875415;-45
2023/12/13 02:09:25;;;;;;;;;68.00;52.33;;;;;5.03;100.00;98467.81;6309475;20;3636814;-44
2023/12/13 02:11:55;;;;;;;;;65.67;52.33;;;;;5.05;100.00;98472.09;6307151;20;3617982;-43
2023/12/13 02:14:25;;;;;;;;;61.00;50.00;;;;;5.20;100.00;98466.78;6309154;20;2850580;-45
2023/12/13 02:16:54;;;;;;;;;69.33;54.67;;;;;5.11;100.00;98467.31;6277323;20;2877466;-44
2023/12/13 02:19:24;;;;;;;;;59.33;49.67;;;;;5.29;100.00;98460.91;6310331;20;2870519;-44
2023/12/13 02:21:54;;;;;;;;;61.67;49.00;;;;;5.03;100.00;98452.69;6309582;20;2874369;-44
2023/12/13 02:24:27;;;;;;;;;58.33;47.33;;;;;5.06;100.00;98449.84;6310428;20;2869010;-44
2023/12/13 02:26:57;;;;;;;;;63.67;50.33;;;;;5.21;100.00;98444.53;6308817;20;3619037;-43
2023/12/13 02:29:26;;;;;;;;;61.67;48.00;;;;;5.19;100.00;98438.47;6309970;20;3617994;-44
2023/12/13 02:31:56;;;;;;;;;64.00;48.33;;;;;5.13;100.00;98439.69;6311037;20;2883100;-43
2023/12/13 02:34:26;;;;;;;;;63.67;49.33;;;;;5.20;100.00;98429.53;6308367;20;2874900;-42
2023/12/13 02:36:55;;;;;;;;;57.67;48.00;;;;;5.19;100.00;98428.69;6310444;20;2870133;-43
2023/12/13 02:39:26;;;;;;;;;53.00;45.00;;;;;5.23;100.00;98424.03;6310332;20;2848225;-43
2023/12/13 02:41:55;;;;;;;;;59.00;46.50;;;;;5.11;100.00;98416.78;6273518;20;2870102;-43
2023/12/13 02:44:25;;;;;;;;;59.67;47.33;;;;;5.01;100.00;98412.00;6275948;20;2875278;-42
2023/12/13 02:46:57;;;;;;;;;53.50;44.00;;;;;5.17;100.00;98405.78;6311334;20;2863810;-43
2023/12/13 02:49:26;;;;;;;;;61.00;49.50;;;;;5.13;100.00;98406.91;6279663;20;2863935;-43
2023/12/13 02:51:56;;;;;;;;;65.00;49.33;;;;;5.02;100.00;98411.06;6280629;20;3636740;-43
2023/12/13 02:54:26;;;;;;;;;69.33;48.33;;;;;5.07;100.00;98406.31;6310473;20;3639874;-44
2023/12/13 02:56:56;;;;;;;;;79.33;62.67;;;;;5.09;100.00;98402.72;6307931;20;2864999;-43
2023/12/13 02:59:25;;;;;;;;;60.67;46.67;;;;;4.93;100.00;98395.66;6307458;20;3625292;-43
2023/12/13 03:01:54;;;;;;;;;54.50;43.50;;;;;5.01;100.00;98392.53;6306408;20;2855523;-43
2023/12/13 03:04:24;;;;;;;;;78.00;58.33;;;;;5.09;100.00;98394.75;6274458;20;3649193;-42
2023/12/13 03:06:54;;;;;;;;;60.00;49.33;;;;;5.10;100.00;98385.81;6310474;20;2879494;-44
2023/12/13 03:09:23;;;;;;;;;53.33;40.00;;;;;5.07;100.00;98382.38;6308812;20;2875238;-44
2023/12/13 03:11:53;;;;;;;;;57.50;44.50;;;;;5.11;100.00;98371.53;6308867;20;2857750;-43
2023/12/13 03:14:21;;;;;;;;;57.50;46.50;;;;;5.04;100.00;98371.94;6274948;20;2864932;-43
2023/12/13 03:16:50;;;;;;;;;59.50;48.50;;;;;5.17;100.00;98376.53;6274777;20;2863889;-43
2023/12/13 03:19:19;;;;;;;;;63.00;43.50;;;;;5.07;100.00;98377.06;6279004;20;2881531;-43
2023/12/13 03:21:51;;;;;;;;;54.50;44.00;;;;;5.18;100.00;98372.91;6275832;20;2847296;-44
2023/12/13 03:24:19;;;;;;;;;60.00;48.00;;;;;5.31;100.00;98378.34;6282195;20;2500291;-43
2023/12/13 03:26:49;;;;;;;;;58.33;46.33;;;;;5.28;100.00;98374.06;6276386;20;2869168;-42
2023/12/13 03:29:18;;;;;;;;;60.50;46.50;;;;;5.56;100.00;98377.69;6309660;20;2870101;-43
2023/12/13 03:31:48;;;;;;;;;58.67;44.00;;;;;5.41;100.00;98379.47;6276446;20;2863891;-43
2023/12/13 03:34:16;;;;;;;;;60.00;47.50;;;;;5.36;100.00;98371.78;6305570;20;2490975;-43
2023/12/13 03:36:47;;;;;;;;;57.00;47.00;;;;;5.14;100.00;98355.44;6277483;20;2864896;-43
2023/12/13 03:39:16;;;;;;;;;47.50;40.00;;;;;5.27;100.00;98356.38;6273945;20;2855642;-43
2023/12/13 03:41:45;;;;;;;;;59.50;45.00;;;;;5.34;100.00;98357.69;6275921;20;2854501;-42
2023/12/13 03:44:14;;;;;;;;;60.00;44.00;;;;;5.43;100.00;98362.47;6276941;20;2876401;-43
2023/12/13 03:46:43;;;;;;;;;55.50;43.50;;;;;5.70;100.00;98361.69;6307980;20;2862862;-44
2023/12/13 03:49:11;;;;;;;;;55.00;45.00;;;;;5.38;100.00;98359.22;6279288;20;2496143;-44
2023/12/13 03:51:43;;;;;;;;;49.50;42.00;;;;;5.61;100.00;98355.16;6281575;20;2863918;-44
2023/12/13 03:54:13;;;;;;;;;49.50;42.50;;;;;5.67;100.00;98351.25;6281198;20;2848193;-43
2023/12/13 03:56:43;;;;;;;;;50.00;42.00;;;;;5.69;100.00;98347.53;6281295;20;2847243;-44
2023/12/13 03:59:11;;;;;;;;;44.50;39.00;;;;;5.55;100.00;98330.69;6277392;20;2487814;-44
2023/12/13 04:01:40;;;;;;;;;55.00;45.50;;;;;5.44;100.00;98326.91;6277489;20;2856534;-43
2023/12/13 04:04:08;;;;;;;;;55.00;44.33;;;;;5.15;100.00;98320.72;6279439;20;2498075;-44
2023/12/13 04:06:38;;;;;;;;;52.33;41.67;;;;;4.94;100.00;98322.03;6312539;20;3620074;-43
2023/12/13 04:09:08;;;;;;;;;48.00;39.00;;;;;5.14;100.00;98320.84;6314975;20;3607779;-44
2023/12/13 04:11:37;;;;;;;;;46.33;40.67;;;;;4.98;100.00;98319.13;6313469;20;2870503;-43
2023/12/13 04:14:07;;;;;;;;;40.00;34.67;;;;;5.09;100.00;98314.94;6313897;20;2852560;-44
2023/12/13 04:16:36;;;;;;;;;58.00;44.00;;;;;5.05;100.00;98312.47;6309394;20;2759660;-44
2023/12/13 04:19:05;;;;;;;;;50.50;43.00;;;;;5.15;100.00;98315.41;6314829;20;2862801;-42
2023/12/13 04:21:33;;;;;;;;;41.50;36.50;;;;;5.09;100.00;98312.28;6279644;20;2503425;-44
2023/12/13 04:24:03;;;;;;;;;49.67;37.67;;;;;5.03;100.00;98310.84;6282098;20;2874358;-45
2023/12/13 04:26:32;;;;;;;;;34.00;32.00;;;;;5.15;100.00;98310.09;6312134;20;2852825;-44
2023/12/13 04:29:01;;;;;;;;;39.00;32.00;;;;;5.19;100.00;98310.78;6280962;20;3601325;-43
2023/12/13 04:31:31;;;;;;;;;34.67;29.00;;;;;5.15;100.00;98303.91;6312436;20;2887889;-45
2023/12/13 04:34:01;;;;;;;;;42.67;34.33;;;;;5.01;100.00;98308.28;6311438;20;3621124;-44
2023/12/13 04:36:29;;;;;;;;;35.00;30.00;;;;;4.94;100.00;98306.09;6314730;20;2743129;-44
2023/12/13 04:38:58;;;;;;;;;39.00;33.67;;;;;4.98;100.00;98303.16;6278107;20;2859697;-44
2023/12/13 04:41:27;;;;;;;;;35.00;33.00;;;;;5.06;100.00;98295.56;6312129;20;2849287;-43
2023/12/13 04:43:57;;;;;;;;;39.67;30.00;;;;;5.17;100.00;98297.56;6280693;20;2874400;-43
2023/12/13 04:46:27;;;;;;;;;31.67;26.67;;;;;5.12;100.00;98288.16;6312225;20;2850285;-43
2023/12/13 04:48:56;;;;;;;;;34.00;30.00;;;;;5.24;100.00;98287.41;6312303;20;2851346;-47
2023/12/13 04:51:25;;;;;;;;;36.50;29.00;;;;;5.12;100.00;98293.47;6281290;20;2869049;-45
2023/12/13 04:53:53;;;;;;;;;36.00;30.00;;;;;5.07;100.00;98285.75;6280398;20;2867013;-48
2023/12/13 04:56:22;;;;;;;;;34.00;29.50;;;;;5.09;100.00;98288.34;6279784;20;2850271;-43
2023/12/13 04:58:53;;;;;;;;;44.67;35.33;;;;;5.16;100.00;98279.00;6279037;20;2874312;-42
2023/12/13 05:01:22;;;;;;;;;28.00;26.50;;;;;5.37;100.00;98280.34;6310954;20;2844137;-43
2023/12/13 05:03:50;;;;;;;;;26.00;24.00;;;;;4.93;100.00;98278.66;6280816;20;2851397;-42
2023/12/13 05:06:19;;;;;;;;;29.00;24.00;;;;;4.84;100.00;98263.22;6280124;20;2856614;-42
2023/12/13 05:08:48;;;;;;;;;28.50;26.00;;;;;4.84;100.00;98268.56;6281511;20;2832518;-43
2023/12/13 05:11:18;;;;;;;;;26.00;26.00;;;;;5.16;100.00;98268.38;6281248;20;2847281;-42
2023/12/13 05:13:48;;;;;;;;;29.50;23.00;;;;;4.94;100.00;98272.38;6277678;20;2500382;-43
2023/12/13 05:16:18;;;;;;;;;27.00;24.50;;;;;4.75;100.00;98271.78;6279127;20;2854555;-43
2023/12/13 05:18:47;;;;;;;;;29.00;23.00;;;;;4.89;100.00;98270.94;6280320;20;2844055;-44
2023/12/13 05:21:15;;;;;;;;;23.00;23.00;;;;;4.85;100.00;98270.28;6278459;20;2835745;-44
2023/12/13 05:23:44;;;;;;;;;28.00;26.00;;;;;5.07;100.00;98270.66;6278156;20;3579461;-44
2023/12/13 05:26:12;;;;;;;;;29.50;22.00;;;;;5.00;100.00;98264.03;6276310;20;2500311;-43
2023/12/13 05:28:40;;;;;;;;;22.00;21.00;;;;;4.88;100.00;98269.25;6278354;20;2500311;-45
2023/12/13 05:31:24;;;;;;;;;22.00;22.00;;;;;5.27;100.00;98281.88;6274894;20;2500335;-43
2023/12/13 05:33:52;;;;;;;;;21.50;21.50;;;;;5.43;100.00;98276.44;6281012;20;2500782;-44
2023/12/13 05:36:20;;;;;;;;;31.00;26.50;;;;;5.55;100.00;98280.97;6277529;20;2492117;-44
2023/12/13 05:38:49;;;;;;;;;27.00;25.00;;;;;5.67;100.00;98268.69;6279437;20;2844071;-46
2023/12/13 05:41:17;;;;;;;;;23.00;22.00;;;;;5.66;100.00;98274.94;6281754;20;2844203;-46
2023/12/13 05:43:46;;;;;;;;;29.50;23.50;;;;;5.46;100.00;98277.09;6280146;20;2850279;-44
2023/12/13 05:46:16;;;;;;;;;29.67;26.00;;;;;5.27;100.00;98263.25;6280569;20;2853405;-42
2023/12/13 05:48:44;;;;;;;;;26.50;24.00;;;;;5.14;100.00;98262.31;6307258;20;2496139;-43
2023/12/13 05:51:13;;;;;;;;;31.00;24.00;;;;;5.49;100.00;98260.94;6277523;20;2842011;-44
2023/12/13 05:53:42;;;;;;;;;30.50;25.50;;;;;5.46;100.00;98258.47;6278335;20;2839984;-43
2023/12/13 05:56:14;;;;;;;;;30.50;23.50;;;;;5.38;100.00;98262.56;6275811;20;2848336;-43
2023/12/13 05:58:43;;;;;;;;;20.00;20.00;;;;;5.25;100.00;98262.50;6278292;20;3571238;-45
2023/12/13 06:01:11;;;;;;;;;24.00;22.00;;;;;5.31;100.00;98261.25;6277689;20;2840075;-47
2023/12/13 06:03:40;;;;;;;;;18.67;18.67;;;;;5.60;100.00;98256.72;6279135;20;3564923;-43
2023/12/13 06:06:09;;;;;;;;;26.50;25.50;;;;;5.60;100.00;98262.91;6281476;20;2855559;-44
2023/12/13 06:08:42;;;;;;;;;28.50;24.00;;;;;5.39;100.00;98253.63;6278602;20;2845069;-44
2023/12/13 06:11:11;;;;;;;;;29.50;25.50;;;;;5.37;100.00;98245.75;6280165;20;2850780;-43
2023/12/13 06:13:41;;;;;;;;;30.00;26.50;;;;;5.62;100.00;98244.16;6280017;20;2833650;-44
2023/12/13 06:16:12;;;;;;;;;35.00;31.00;;;;;5.69;100.00;98245.50;6278437;20;2855561;-44
2023/12/13 06:18:40;;;;;;;;;28.50;23.50;;;;;5.25;100.00;98251.84;6277456;20;2500303;-43
2023/12/13 06:21:09;;;;;;;;;35.50;30.50;;;;;5.54;100.00;98244.66;6278530;20;2855615;-45
2023/12/13 06:23:38;;;;;;;;;30.50;26.50;;;;;5.58;100.00;98245.31;6277706;20;2836882;-46
2023/12/13 06:26:07;;;;;;;;;78.00;61.33;;;;;5.12;100.00;98240.25;6280955;20;2873274;-44
2023/12/13 06:28:37;;;;;;;;;50.00;42.33;;;;;5.35;100.00;98237.00;6310824;20;2861787;-44
2023/12/13 06:31:07;;;;;;;;;39.00;34.67;;;;;5.16;100.00;98232.00;6308095;20;3612834;-44
2023/12/13 06:33:35;;;;;;;;;14.00;11.50;;;;;4.77;100.00;98230.88;6310506;20;2799723;-44
2023/12/13 06:36:04;;;;;;;;;74.50;61.00;;;;;4.83;100.00;98227.81;6277992;20;2496120;-44
2023/12/13 06:38:33;;;;;;;;;71.67;56.33;;;;;4.93;100.00;98225.44;6279750;20;2865877;-44
2023/12/13 06:41:02;;;;;;;;;31.50;28.50;;;;;5.50;100.00;98225.38;6309025;20;2845061;-45
2023/12/13 06:43:32;;;;;;;;;64.00;48.67;;;;;5.26;100.00;98226.94;6279419;20;3625252;-45
2023/12/13 06:46:02;;;;;;;;;35.33;30.67;;;;;5.15;100.00;98235.59;6309825;20;2852406;-44
2023/12/13 06:48:32;;;;;;;;;99.67;96.67;;;;;4.87;100.00;98225.84;6309496;20;3663758;-44
2023/12/13 06:51:01;;;;;;;;;26.00;26.00;;;;;4.88;100.00;98232.00;6307579;20;2849200;-44
2023/12/13 06:53:30;;;;;;;;;30.00;27.50;;;;;5.52;100.00;98232.41;6277539;20;2846203;-44
2023/12/13 06:55:59;;;;;;;;;33.00;29.00;;;;;5.25;100.00;98219.91;6277722;20;2852422;-45
2023/12/13 06:58:28;;;;;;;;;23.50;22.50;;;;;5.54;100.00;98219.84;6279564;20;2846116;-44
2023/12/13 07:00:56;;;;;;;;;22.50;21.50;;;;;4.97;100.00;98221.63;6275599;20;2500274;-45
2023/12/13 07:03:24;;;;;;;;;26.00;22.00;;;;;4.95;100.00;98217.34;6278738;20;2835720;-44
2023/12/13 07:05:54;;;;;;;;;27.00;24.50;;;;;4.97;100.00;98221.63;6279521;20;2848208;-46
2023/12/13 07:08:24;;;;;;;;;29.00;27.50;;;;;5.26;100.00;98227.78;6277031;20;2843063;-45
2023/12/13 07:10:53;;;;;;;;;27.00;25.00;;;;;5.01;100.00;98228.50;6276764;20;2854437;-48
2023/12/13 07:13:21;;;;;;;;;32.50;28.50;;;;;5.60;100.00;98230.94;6278219;20;2852351;-44
2023/12/13 07:15:50;;;;;;;;;30.00;27.00;;;;;5.37;100.00;98219.16;6276708;20;2855563;-45
2023/12/13 07:18:21;;;;;;;;;21.00;20.00;;;;;5.88;100.00;98224.69;6275757;20;2500342;-44
2023/12/13 07:20:50;;;;;;;;;30.00;26.00;;;;;5.82;100.00;98225.09;6277372;20;2845293;-44
2023/12/13 07:23:19;;;;;;;;;35.00;29.50;;;;;5.98;100.00;98216.97;6285032;20;2845135;-45
2023/12/13 07:25:49;;;;;;;;;37.33;33.00;;;;;6.01;100.00;98218.59;6284058;20;2852485;-44
2023/12/13 07:28:18;;;;;;;;;35.00;32.33;;;;;5.98;100.00;98213.44;6315284;20;3597098;-43
2023/12/13 07:30:47;;;;;;;;;33.50;33.50;;;;;5.86;100.00;98226.59;6281101;20;2860736;-44
2023/12/13 07:33:34;;;;;;;;;40.50;38.50;;;;;5.85;100.00;98234.69;6284168;20;2855478;-44
2023/12/13 07:36:05;;;;;;;;;48.33;39.00;;;;;5.94;100.00;98239.44;6281760;20;2873262;-46
2023/12/13 07:38:35;;;;;;;;;50.33;41.33;;;;;5.98;100.00;98242.75;6316900;20;2868512;-46
2023/12/13 07:41:04;;;;;;;;;55.50;45.50;;;;;5.87;100.00;98233.63;6312449;20;2880474;-44
2023/12/13 07:43:34;;;;;;;;;46.00;40.00;;;;;5.96;100.00;98231.34;6282122;20;2871097;-45
2023/12/13 07:46:04;;;;;;;;;41.67;34.33;;;;;6.09;100.00;98217.09;6312356;20;3616894;-45
2023/12/13 07:48:33;;;;;;;;;36.00;31.00;;;;;6.03;100.00;98220.19;6318939;20;3587770;-44
2023/12/13 07:51:02;;;;;;;;;33.00;30.00;;;;;5.82;100.00;98219.78;6279261;20;2848198;-44
2023/12/13 07:53:32;;;;;;;;;36.50;34.50;;;;;5.83;100.00;98216.13;6284787;20;2862766;-43
2023/12/13 07:56:01;;;;;;;;;36.00;30.00;;;;;6.05;100.00;98220.06;6281690;20;2854461;-45
2023/12/13 07:58:30;;;;;;;;;39.00;35.00;;;;;6.10;100.00;98218.81;6284823;20;2859687;-44
2023/12/13 08:01:00;;;;;;;;;47.33;32.00;;;;;5.36;100.00;98205.91;6311507;20;3637875;-45
2023/12/13 08:03:30;;;;;;;;;41.00;36.00;;;;;5.57;100.00;98204.53;6311652;20;2861902;-44
2023/12/13 08:06:00;;;;;;;;;39.00;32.33;;;;;5.33;100.00;98201.66;6313152;20;3616949;-45
2023/12/13 08:08:31;;;;;;;;;47.00;35.67;;;;;5.50;100.00;98204.09;6312007;20;3597186;-44
2023/12/13 08:11:00;;;;;;;;;36.00;36.00;;;;;5.82;100.00;98205.56;6311631;20;2856159;-45
2023/12/13 08:13:29;;;;;;;;;43.00;37.50;;;;;6.00;100.00;98216.84;6281628;20;2857608;-45
2023/12/13 08:15:57;;;;;;;;;25.50;23.50;;;;;5.93;100.00;98211.06;6278827;20;2500283;-45
2023/12/13 08:18:27;;;;;;;;;52.67;39.33;;;;;6.09;100.00;98205.59;6281483;20;2863892;-45
2023/12/13 08:20:57;;;;;;;;;36.67;30.67;;;;;5.41;100.00;98195.84;6311813;20;3604432;-45
2023/12/13 08:23:26;;;;;;;;;35.00;28.50;;;;;5.61;100.00;98203.38;6316223;20;2852369;-45
2023/12/13 08:25:55;;;;;;;;;34.50;34.00;;;;;5.37;100.00;98199.63;6284340;20;2855491;-44
2023/12/13 08:28:25;;;;;;;;;35.00;31.00;;;;;5.42;100.00;98195.72;6283210;20;3611734;-43
2023/12/13 08:30:54;;;;;;;;;39.00;35.67;;;;;5.67;100.00;98207.47;6312191;20;3603495;-44
2023/12/13 08:33:43;;;;;;;;;46.00;39.00;;;;;5.99;100.00;98209.84;6280249;20;2487829;-44
2023/12/13 08:36:14;;;;;;;;;44.00;38.33;;;;;5.96;100.00;98208.22;6283778;20;2854492;-44
2023/12/13 08:38:43;;;;;;;;;40.67;36.00;;;;;6.02;100.00;98202.47;6317005;20;3595214;-44
2023/12/13 08:41:13;;;;;;;;;27.00;22.50;;;;;5.91;100.00;98203.16;6281740;20;2838871;-48
2023/12/13 08:43:43;;;;;;;;;49.00;36.00;;;;;5.34;100.00;98200.69;6284388;20;3645268;-45
2023/12/13 08:46:13;;;;;;;;;38.33;32.33;;;;;5.36;100.00;98195.28;6312736;20;3614802;-45
2023/12/13 08:48:45;;;;;;;;;38.00;34.33;;;;;5.54;100.00;98201.22;6313704;20;3600387;-44
2023/12/13 08:51:15;;;;;;;;;41.00;31.67;;;;;5.69;100.00;98195.75;6317519;20;3626303;-48
2023/12/13 08:53:44;;;;;;;;;160.67;145.67;;;;;5.82;100.00;98193.13;6282531;20;3711734;-44
2023/12/13 08:56:14;;;;;;;;;42.00;36.00;;;;;5.36;100.00;98190.81;6282223;20;2864883;-45
2023/12/13 08:58:44;;;;;;;;;44.33;34.67;;;;;5.87;100.00;98193.69;6282939;20;3609743;-46
2023/12/13 09:01:14;;;;;;;;;35.50;31.50;;;;;6.11;100.00;98183.22;6314125;20;2852402;-45
2023/12/13 09:03:44;;;;;;;;;46.50;41.50;;;;;5.61;100.00;98176.75;6283745;20;2862793;-44
2023/12/13 09:06:16;;;;;;;;;48.33;40.00;;;;;5.24;100.00;98170.31;6282934;20;2874263;-44
2023/12/13 09:08:44;;;;;;;;;43.00;36.00;;;;;5.31;100.00;98171.63;6316217;20;3601457;-43
2023/12/13 09:11:14;;;;;;;;;40.33;34.67;;;;;5.26;100.00;98179.03;6284681;20;2850450;-44
2023/12/13 09:13:43;;;;;;;;;64.50;51.50;;;;;5.23;100.00;98181.91;6313743;20;2846177;-44
2023/12/13 09:16:12;;;;;;;;;44.00;39.67;;;;;5.25;100.00;98169.34;6281876;20;3582681;-43
2023/12/13 09:18:44;;;;;;;;;58.00;47.00;;;;;5.02;100.00;98162.84;6314500;20;2866104;-44
2023/12/13 09:21:14;;;;;;;;;89.33;76.67;;;;;5.07;100.00;98158.09;6281218;20;2904459;-43
2023/12/13 09:23:43;;;;;;;;;48.50;42.00;;;;;5.31;100.00;98155.66;6312392;20;2840928;-43
2023/12/13 09:26:14;;;;;;;;;44.00;36.67;;;;;5.72;100.00;98154.75;6280523;20;3614833;-44
2023/12/13 09:28:44;;;;;;;;;40.33;35.33;;;;;5.81;100.00;98154.13;6311541;20;3591113;-45
2023/12/13 09:31:13;;;;;;;;;62.00;52.00;;;;;5.79;100.00;98156.03;6312925;20;2851326;-44
2023/12/13 09:33:43;;;;;;;;;42.33;33.33;;;;;5.90;100.00;98156.19;6281542;20;3616891;-46
2023/12/13 09:36:13;;;;;;;;;44.33;36.00;;;;;5.99;100.00;98156.56;6310909;20;2866922;-46
2023/12/13 09:38:42;;;;;;;;;44.33;39.00;;;;;5.99;100.00;98148.56;6311059;20;3600400;-44
2023/12/13 09:41:15;;;;;;;;;43.50;37.50;;;;;6.09;100.00;98158.50;6281660;20;2852537;-45
2023/12/13 09:43:45;;;;;;;;;37.33;36.00;;;;;5.91;100.00;98163.22;6279564;20;3612760;-44
2023/12/13 09:46:17;;;;;;;;;48.33;39.00;;;;;6.04;100.00;98171.25;6311725;20;3611728;-43
2023/12/13 09:48:46;;;;;;;;;55.50;44.50;;;;;5.97;100.00;98177.09;6282472;20;2855484;-44
2023/12/13 09:51:21;;;;;;;;;54.00;42.00;;;;;5.85;100.00;98182.28;6277418;20;2856621;-43
2023/12/13 09:53:51;;;;;;;;;45.50;40.00;;;;;5.87;100.00;98169.72;6281110;20;2867022;-42
2023/12/13 09:56:21;;;;;;;;;46.67;38.33;;;;;5.85;100.00;98160.13;6279598;20;2867091;-43
2023/12/13 09:58:51;;;;;;;;;34.00;32.00;;;;;5.84;100.00;98167.22;6309777;20;2862817;-45
2023/12/13 10:01:21;;;;;;;;;40.00;31.67;;;;;5.87;100.00;98159.06;6313708;20;3620225;-45
2023/12/13 10:03:50;;;;;;;;;29.00;24.00;;;;;5.86;100.00;98167.13;6313644;20;2850405;-45
2023/12/13 10:06:20;;;;;;;;;39.33;35.33;;;;;5.67;100.00;98162.19;6279658;20;3596130;-43
2023/12/13 10:08:54;;;;;;;;;39.00;33.33;;;;;5.66;100.00;98160.47;6313770;20;3608591;-43
2023/12/13 10:11:24;;;;;;;;;38.67;34.33;;;;;5.80;100.00;98157.75;6314973;20;3613819;-42
2023/12/13 10:13:53;;;;;;;;;43.50;37.00;;;;;5.87;100.00;98159.06;6280971;20;2854484;-45
2023/12/13 10:16:22;;;;;;;;;41.33;35.00;;;;;5.96;100.00;98162.09;6277979;20;2865347;-45
2023/12/13 10:18:52;;;;;;;;;43.33;39.00;;;;;5.86;100.00;98157.34;6313909;20;2860696;-44
2023/12/13 10:21:21;;;;;;;;;42.00;38.00;;;;;5.89;100.00;98162.44;6313417;20;3600382;-43
2023/12/13 10:23:50;;;;;;;;;42.00;36.50;;;;;5.99;100.00;98164.53;6282881;20;2857711;-45
2023/12/13 10:26:20;;;;;;;;;61.00;47.33;;;;;5.69;100.00;98158.47;6279343;20;2865012;-44
2023/12/13 10:28:50;;;;;;;;;69.00;54.00;;;;;5.71;100.00;98163.69;6312631;20;3622130;-45
2023/12/13 10:31:22;;;;;;;;;65.33;53.00;;;;;5.71;100.00;98148.59;6312423;20;3626352;-44
2023/12/13 10:33:52;;;;;;;;;80.33;60.67;;;;;5.70;100.00;98160.16;6312220;20;3636859;-43
2023/12/13 10:36:25;;;;;;;;;71.33;55.67;;;;;5.91;100.00;98157.03;6311725;20;3629472;-42
2023/12/13 10:38:56;;;;;;;;;73.67;56.00;;;;;5.77;100.00;98152.63;6311467;20;2889024;-44
2023/12/13 10:41:27;;;;;;;;;52.50;43.50;;;;;5.98;100.00;98141.50;6312750;20;2850319;-45
2023/12/13 10:43:59;;;;;;;;;45.00;38.00;;;;;5.90;100.00;98142.88;6281034;20;2871123;-44
2023/12/13 10:46:35;;;;;;;;;43.33;38.67;;;;;5.99;100.00;98129.91;6310671;20;2861715;-44
2023/12/13 10:49:04;;;;;;;;;35.67;35.67;;;;;6.05;100.00;98134.81;6311617;20;3585654;-43
2023/12/13 10:51:36;;;;;;;;;51.50;43.00;;;;;5.94;100.00;98128.41;6278404;20;2858604;-44
2023/12/13 10:54:05;;;;;;;;;47.50;40.00;;;;;6.19;100.00;98131.19;6276705;20;2489846;-44
2023/12/13 10:56:35;;;;;;;;;51.33;42.00;;;;;6.04;100.00;98117.13;6284923;20;2867073;-44
2023/12/13 10:59:10;;;;;;;;;44.67;38.00;;;;;5.99;100.00;98111.25;6320250;20;3596417;-43
2023/12/13 11:01:41;;;;;;;;;36.50;34.00;;;;;6.14;100.00;98107.56;6280169;20;2849239;-44
2023/12/13 11:04:16;;;;;;;;;47.00;38.33;;;;;6.23;100.00;98106.91;6284066;20;2879734;-43
2023/12/13 11:06:49;;;;;;;;;38.00;34.33;;;;;6.24;100.00;98092.63;6315807;20;3564879;-44
2023/12/13 11:09:21;;;;;;;;;41.33;38.33;;;;;5.59;100.00;98087.31;6313782;20;2859878;-44
2023/12/13 11:11:50;;;;;;;;;42.67;36.00;;;;;6.12;100.00;98082.81;6317678;20;3597150;-43
2023/12/13 11:14:20;;;;;;;;;42.00;37.00;;;;;5.78;100.00;98074.44;6284093;20;2859729;-44